This is the latest recevied weather packets stored in our database for station/object N9GKE-1. If no packets are shown the sender has not sent any weather packets the latest 10 day(s).
| Time | Temp. | Humidity | Pressure | Rain* | Wind** | Luminosity | Snow |
|---|---|---|---|---|---|---|---|
| 1778194151 | 12.78° C | 66% | 1013 hPa | 0 mm | - | - | - |
| 1778193696 | 12.78° C | 68% | 1013 hPa | 0 mm | - | - | - |
| 1778193550 | 12.78° C | 68% | 1013.1 hPa | 0 mm | - | - | - |
| 1778193096 | 12.78° C | 70% | 1013.2 hPa | 0 mm | - | - | - |
| 1778192951 | 12.78° C | 71% | 1013.2 hPa | 0 mm | - | - | - |
| 1778192494 | 12.78° C | 70% | 1013.3 hPa | 0 mm | - | - | - |
| 1778192350 | 12.78° C | 71% | 1013.2 hPa | 0 mm | - | - | - |
| 1778191896 | 12.78° C | 73% | 1013.4 hPa | 0.25 mm | - | - | - |
| 1778191751 | 12.78° C | 71% | 1013.5 hPa | 0.25 mm | - | - | - |
| 1778191297 | 12.22° C | 74% | 1013.5 hPa | 0.25 mm | - | - | - |
| 1778191150 | 12.22° C | 74% | 1013.6 hPa | 0.25 mm | - | - | - |
| 1778190697 | 11.67° C | 77% | 1013.6 hPa | 0.25 mm | - | - | - |
| 1778190553 | 11.67° C | 78% | 1013.6 hPa | 0.25 mm | - | - | - |
| 1778190094 | 11.11° C | 79% | 1013.7 hPa | 0.25 mm | - | - | - |
| 1778189950 | 11.11° C | 78% | 1013.7 hPa | 0.25 mm | - | - | - |
| 1778189495 | 11.11° C | 77% | 1014 hPa | 0.25 mm | - | - | - |
| 1778189350 | 11.11° C | 77% | 1014.1 hPa | 0.25 mm | - | - | - |
| 1778188894 | 11.67° C | 75% | 1014.4 hPa | 0.25 mm | - | - | - |
| 1778188751 | 11.67° C | 73% | 1014.4 hPa | 0.25 mm | - | - | - |
| 1778188294 | 12.78° C | 66% | 1014.3 hPa | 0 mm | - | - | - |
| 1778188149 | 12.78° C | 63% | 1014.2 hPa | 0 mm | - | - | - |
| 1778187695 | 14.44° C | 52% | 1013.8 hPa | 0 mm | - | - | - |
| 1778187552 | 15° C | 50% | 1013.7 hPa | 0 mm | - | - | - |
| 1778187097 | 15.56° C | 43% | 1013 hPa | 0 mm | - | - | - |
| 1778186950 | 15.56° C | 44% | 1012.9 hPa | 0 mm | - | - | - |
* Rain latest hour (hover to see other rain measurements)
** Current wind speed in m/s (hover to see current wind gust speed)